Wind Star — C6CA9 — position and weather

sailwx.info

Track history (hours):
 
Tides and Currents Weather Stations Pressure Air Temp Water Temp Dewpoint Dewpoint Depression Visibility Wind Speed Wind Dir Waves Ship Positions

Wind Star

Operator: Holland America Line

Last reported at 2016-Nov-12 21:33 UTC. Time now 2016-Dec-02 18:04 UTC.
Position N 38°28' W 009°54'.
Warning: this ship's position is 19 days out of date.

Length 134 m; draft 4.2 m.

Type: Passenger vessel. MMSI: 309163000.

Date/timePositionNaut miles runAvg speedWind from/ knotsBaromVisibWave heightAir tempDewpointWater temp
2016-Nov-12 21:33N 38°28' W 009°54'2010.2
2016-Nov-12 19:33N 38°35' W 009°30'19 9.5
2016-Nov-12 17:33N 38°43' W 009°07'0 0.0
2016-Nov-12 16:31N 38°43' W 009°07'0 0.0
2016-Nov-12 15:28N 38°43' W 009°07'0 0.0
2016-Nov-12 14:31N 38°43' W 009°07'0 0.0
2016-Nov-12 13:31N 38°43' W 009°07'0 0.0
2016-Nov-12 12:31N 38°43' W 009°07'0 0.0
2016-Nov-12 11:31N 38°43' W 009°07'0 0.0
2016-Nov-12 09:31N 38°43' W 009°07'1 0.3
2016-Nov-12 06:33N 38°42' W 009°08'16 5.5
2016-Nov-12 03:33N 38°31' W 009°23'7 6.6
2016-Nov-12 02:33N 38°24' W 009°22'12 5.8
2016-Nov-12 00:33N 38°12' W 009°23'6 5.7
2016-Nov-11 23:33N 38°07' W 009°22'25 6.1
2016-Nov-11 19:33N 37°42' W 009°21'  
2016-Nov-08 22:31N 36°31' W 003°02'9 9.3
2016-Nov-08 21:33N 36°32' W 002°50'10 9.7
2016-Nov-08 20:33N 36°36' W 002°39'10 9.9
2016-Nov-08 19:33N 36°44' W 002°31'7 6.8
2016-Nov-08 18:33N 36°50' W 002°28'0 0.0
2016-Nov-08 17:33N 36°50' W 002°28'0 0.0
2016-Nov-08 15:33N 36°50' W 002°28'0 0.0
2016-Nov-08 09:33N 36°50' W 002°28'5 1.7
2016-Nov-08 06:33N 36°45' W 002°26'87 3.8
2016-Nov-07 07:31N 37°31' W 000°55'1010.5
2016-Nov-07 06:32N 37°33' W 000°42'10 9.8
2016-Nov-07 05:32N 37°37' W 000°30'121 5.5
2016-Nov-06 07:23N 38°54' E 001°28'64 8.2
2016-Nov-05 23:33N 39°58' E 001°33'19 9.5
2016-Nov-05 21:33N 40°17' E 001°30'8 9.9
2016-Nov-05 20:42N 40°25' E 001°28'110.2
2016-Nov-05 20:33N 40°27' E 001°28'38 1.8
2016-Nov-04 23:29N 41°01' E 001°47'4 4.0
2016-Nov-04 22:32N 41°01' E 001°53'6 5.7
2016-Nov-04 21:33N 41°01' E 001°60'6 5.1
2016-Nov-04 20:27N 41°03' E 002°07'10 5.1
2016-Nov-04 18:33N 41°11' E 002°14'  
Track history (hours):
 
Tides and Currents Weather Stations Pressure Air Temp Water Temp Dewpoint Dewpoint Depression Visibility Wind Speed Wind Dir Waves Ship Positions

Wind Star

Operator: Holland America Line

Last reported at 2016-Nov-12 21:33 UTC. Time now 2016-Dec-02 18:04 UTC.
Position N 38°28' W 009°54'.
Warning: this ship's position is 19 days out of date.

Length 134 m; draft 4.2 m.

Type: Passenger vessel. MMSI: 309163000.

Date/timePositionNaut miles runAvg speedWind from/ knotsBaromVisibWave heightAir tempDewpointWater temp
2016-Nov-12 21:33N 38°28' W 009°54'2010.2
2016-Nov-12 19:33N 38°35' W 009°30'19 9.5
2016-Nov-12 17:33N 38°43' W 009°07'0 0.0
2016-Nov-12 16:31N 38°43' W 009°07'0 0.0
2016-Nov-12 15:28N 38°43' W 009°07'0 0.0
2016-Nov-12 14:31N 38°43' W 009°07'0 0.0
2016-Nov-12 13:31N 38°43' W 009°07'0 0.0
2016-Nov-12 12:31N 38°43' W 009°07'0 0.0
2016-Nov-12 11:31N 38°43' W 009°07'0 0.0
2016-Nov-12 09:31N 38°43' W 009°07'1 0.3
2016-Nov-12 06:33N 38°42' W 009°08'16 5.5
2016-Nov-12 03:33N 38°31' W 009°23'7 6.6
2016-Nov-12 02:33N 38°24' W 009°22'12 5.8
2016-Nov-12 00:33N 38°12' W 009°23'6 5.7
2016-Nov-11 23:33N 38°07' W 009°22'25 6.1
2016-Nov-11 19:33N 37°42' W 009°21'  
2016-Nov-08 22:31N 36°31' W 003°02'9 9.3
2016-Nov-08 21:33N 36°32' W 002°50'10 9.7
2016-Nov-08 20:33N 36°36' W 002°39'10 9.9
2016-Nov-08 19:33N 36°44' W 002°31'7 6.8
2016-Nov-08 18:33N 36°50' W 002°28'0 0.0
2016-Nov-08 17:33N 36°50' W 002°28'0 0.0
2016-Nov-08 15:33N 36°50' W 002°28'0 0.0
2016-Nov-08 09:33N 36°50' W 002°28'5 1.7
2016-Nov-08 06:33N 36°45' W 002°26'87 3.8
2016-Nov-07 07:31N 37°31' W 000°55'1010.5
2016-Nov-07 06:32N 37°33' W 000°42'10 9.8
2016-Nov-07 05:32N 37°37' W 000°30'121 5.5
2016-Nov-06 07:23N 38°54' E 001°28'64 8.2
2016-Nov-05 23:33N 39°58' E 001°33'19 9.5
2016-Nov-05 21:33N 40°17' E 001°30'8 9.9
2016-Nov-05 20:42N 40°25' E 001°28'110.2
2016-Nov-05 20:33N 40°27' E 001°28'38 1.8
2016-Nov-04 23:29N 41°01' E 001°47'4 4.0
2016-Nov-04 22:32N 41°01' E 001°53'6 5.7
2016-Nov-04 21:33N 41°01' E 001°60'6 5.1
2016-Nov-04 20:27N 41°03' E 002°07'10 5.1
2016-Nov-04 18:33N 41°11' E 002°14'  

Dump ship's entire track history